Time;durP1;ratioP1;P1;durP2;ratioP2;P2;SDS_P1;SDS_P2;PMS_P1;PMS_P2;Temp;Humidity;BMP_temperature;BMP_pressure;BME280_temperature;BME280_humidity;BME280_pressure;Samples;Min_cycle;Max_cycle;Signal;HPM_P1;HPM_P2
2021/09/17 00:01:25;;;;;;;20.97;19.07;;;13.90;99.90;;;;;;5027866;28;20226;-65
2021/09/17 00:03:51;;;;;;;22.03;19.17;;;13.90;99.90;;;;;;5014892;28;20368;-65
2021/09/17 00:06:16;;;;;;;21.17;18.97;;;13.80;99.90;;;;;;5002222;28;20557;-65
2021/09/17 00:08:42;;;;;;;21.77;19.50;;;13.80;99.90;;;;;;5034298;28;20250;-65
2021/09/17 00:11:07;;;;;;;24.13;21.53;;;13.80;99.90;;;;;;5030227;28;20176;-65
2021/09/17 00:13:35;;;;;;;24.93;22.20;;;13.80;99.90;;;;;;5014515;28;20183;-65
2021/09/17 00:16:00;;;;;;;25.23;22.17;;;13.70;99.90;;;;;;5016505;28;20183;-65
2021/09/17 00:18:26;;;;;;;26.10;23.50;;;13.80;99.90;;;;;;5033608;28;20171;-65
2021/09/17 00:20:51;;;;;;;28.97;25.27;;;13.80;99.90;;;;;;5033283;28;20715;-65
2021/09/17 00:23:17;;;;;;;29.80;25.83;;;13.80;99.90;;;;;;5033259;28;20237;-65
2021/09/17 00:25:43;;;;;;;31.20;26.70;;;13.90;99.90;;;;;;5034185;28;20172;-65
2021/09/17 00:28:08;;;;;;;29.73;26.27;;;13.90;99.90;;;;;;5015391;28;20192;-66
2021/09/17 00:30:34;;;;;;;28.63;23.83;;;14.00;99.90;;;;;;5013994;28;20200;-65
2021/09/17 00:33:00;;;;;;;30.70;27.13;;;14.00;99.90;;;;;;5030799;28;20204;-65
2021/09/17 00:35:26;;;;;;;31.20;25.97;;;14.10;99.90;;;;;;5033891;28;20241;-65
2021/09/17 00:37:53;;;;;;;30.40;24.87;;;14.20;99.90;;;;;;5018618;28;20263;-65
2021/09/17 00:40:18;;;;;;;29.60;26.40;;;14.20;99.90;;;;;;5013036;28;20196;-66
2021/09/17 00:42:44;;;;;;;27.93;25.30;;;14.20;99.90;;;;;;5027026;28;20218;-67
2021/09/17 00:45:12;;;;;;;29.77;25.00;;;14.30;99.90;;;;;;5033724;28;20582;-66
2021/09/17 00:47:39;;;;;;;27.87;25.03;;;14.30;99.90;;;;;;5021592;28;20731;-66
2021/09/17 00:50:06;;;;;;;29.27;26.30;;;14.30;99.90;;;;;;5013551;28;20677;-65
2021/09/17 00:52:32;;;;;;;29.40;26.10;;;14.30;99.90;;;;;;5024405;28;20624;-66
2021/09/17 00:54:58;;;;;;;30.83;27.57;;;14.30;99.90;;;;;;5033702;28;20258;-66
2021/09/17 00:57:24;;;;;;;29.87;26.80;;;14.40;99.90;;;;;;5031682;28;20183;-66
2021/09/17 00:59:50;;;;;;;32.37;28.50;;;14.40;99.90;;;;;;5033194;28;20191;-65
2021/09/17 01:02:15;;;;;;;32.67;28.20;;;14.40;99.90;;;;;;5032716;28;20230;-66
2021/09/17 01:04:41;;;;;;;33.10;28.97;;;14.40;99.90;;;;;;5015690;28;20237;-65
2021/09/17 01:07:07;;;;;;;38.00;28.43;;;14.40;99.90;;;;;;5027452;28;20176;-65
2021/09/17 01:09:33;;;;;;;35.50;31.07;;;14.40;99.90;;;;;;5027846;28;20230;-65
2021/09/17 01:12:03;;;;;;;42.03;31.10;;;14.40;99.90;;;;;;5028932;28;20176;-66
2021/09/17 01:14:31;;;;;;;38.47;31.23;;;14.40;99.90;;;;;;5013412;28;20198;-66
2021/09/17 01:16:57;;;;;;;38.80;32.37;;;14.40;99.90;;;;;;5030159;28;20653;-66
2021/09/17 01:19:22;;;;;;;36.67;32.67;;;14.40;99.90;;;;;;5031963;28;20548;-66
2021/09/17 01:21:57;;;;;;;37.83;32.27;;;14.40;99.90;;;;;;5015861;28;20211;-65
2021/09/17 01:24:23;;;;;;;43.13;34.57;;;14.40;99.90;;;;;;5013263;28;20183;-66
2021/09/17 01:26:49;;;;;;;40.97;35.27;;;14.40;99.90;;;;;;5029403;28;20586;-66
2021/09/17 01:29:14;;;;;;;40.67;36.33;;;14.40;99.90;;;;;;5032554;28;20188;-65
2021/09/17 01:31:40;;;;;;;44.53;36.87;;;14.40;99.90;;;;;;5017883;28;20186;-65
2021/09/17 01:34:09;;;;;;;43.03;38.17;;;14.40;99.90;;;;;;4995485;28;20214;-65
2021/09/17 01:36:34;;;;;;;46.07;36.83;;;14.40;99.90;;;;;;5014239;28;20184;-66
2021/09/17 01:39:00;;;;;;;47.90;40.13;;;14.40;99.90;;;;;;5012946;28;20202;-66
2021/09/17 01:41:26;;;;;;;51.23;40.20;;;14.40;99.90;;;;;;5023871;28;20261;-66
2021/09/17 01:43:51;;;;;;;45.20;40.23;;;14.40;99.90;;;;;;5032740;28;20180;-66
2021/09/17 01:46:18;;;;;;;47.60;41.33;;;14.40;99.90;;;;;;5004748;28;20599;-65
2021/09/17 01:48:43;;;;;;;46.67;41.50;;;14.50;99.90;;;;;;5012864;28;20176;-66
2021/09/17 01:51:09;;;;;;;47.87;41.97;;;14.40;99.90;;;;;;5020540;28;20191;-66
2021/09/17 01:53:34;;;;;;;47.83;42.07;;;14.40;99.90;;;;;;5032364;28;20558;-66
2021/09/17 01:56:00;;;;;;;49.73;43.80;;;14.50;99.90;;;;;;5025737;28;20180;-65
2021/09/17 01:58:26;;;;;;;50.73;42.83;;;14.50;99.90;;;;;;5012708;28;20176;-65
2021/09/17 02:00:52;;;;;;;54.20;42.77;;;14.50;99.90;;;;;;5016906;28;20284;-66
2021/09/17 02:03:18;;;;;;;49.00;43.03;;;14.50;99.90;;;;;;5032171;28;20207;-66
2021/09/17 02:05:43;;;;;;;47.07;41.83;;;14.50;99.90;;;;;;5011378;28;20259;-65
2021/09/17 02:08:09;;;;;;;47.57;41.67;;;14.50;99.90;;;;;;5012439;28;20176;-65
2021/09/17 02:10:35;;;;;;;55.23;41.03;;;14.60;99.90;;;;;;5013249;28;20219;-65
2021/09/17 02:13:01;;;;;;;46.07;41.07;;;14.50;99.90;;;;;;5032159;28;20188;-66
2021/09/17 02:15:28;;;;;;;47.67;40.70;;;14.50;99.90;;;;;;5031784;28;20190;-65
2021/09/17 02:17:53;;;;;;;47.70;40.73;;;14.60;99.90;;;;;;5012409;28;20188;-66
2021/09/17 02:20:19;;;;;;;46.53;41.60;;;14.50;99.90;;;;;;4994336;28;20210;-66
2021/09/17 02:22:45;;;;;;;48.40;41.13;;;14.60;99.90;;;;;;5030145;28;20210;-65
2021/09/17 02:25:11;;;;;;;47.87;38.97;;;14.60;99.90;;;;;;5032845;28;20210;-69
2021/09/17 02:27:37;;;;;;;43.37;39.00;;;14.60;99.90;;;;;;4998950;28;20598;-70
2021/09/17 02:30:05;;;;;;;43.17;38.77;;;14.60;99.90;;;;;;5013187;28;20203;-71
2021/09/17 02:32:30;;;;;;;46.23;38.00;;;14.60;99.90;;;;;;5028036;28;20191;-70
2021/09/17 02:34:56;;;;;;;42.43;37.67;;;14.60;99.90;;;;;;5033221;28;20183;-68
2021/09/17 02:37:21;;;;;;;47.57;37.83;;;14.70;99.90;;;;;;5001819;28;20211;-69
2021/09/17 02:39:47;;;;;;;41.93;37.40;;;14.60;99.90;;;;;;5012857;28;20230;-67
2021/09/17 02:42:13;;;;;;;42.00;36.80;;;14.60;99.90;;;;;;5024606;28;20215;-70
2021/09/17 02:44:38;;;;;;;47.17;38.00;;;14.60;99.90;;;;;;5033300;28;20183;-68
2021/09/17 02:47:04;;;;;;;47.83;35.93;;;14.70;99.90;;;;;;5022809;28;20184;-68
2021/09/17 02:49:33;;;;;;;39.03;34.83;;;14.70;99.90;;;;;;4995154;28;20346;-68
2021/09/17 02:52:00;;;;;;;47.40;36.03;;;14.70;99.90;;;;;;5021381;28;20179;-69
2021/09/17 02:54:25;;;;;;;42.30;35.27;;;14.70;99.90;;;;;;5032751;28;20216;-69
2021/09/17 02:56:51;;;;;;;41.20;36.90;;;14.70;99.90;;;;;;5008095;28;20579;-68
2021/09/17 02:59:17;;;;;;;42.07;37.33;;;14.70;99.90;;;;;;5012554;28;20215;-68
2021/09/17 03:01:42;;;;;;;44.20;34.83;;;14.70;99.90;;;;;;5017686;28;20215;-68
2021/09/17 03:04:08;;;;;;;38.87;34.63;;;14.70;99.90;;;;;;5033791;28;20179;-71
2021/09/17 03:06:33;;;;;;;38.70;34.50;;;14.70;99.90;;;;;;5033161;28;20168;-69
2021/09/17 03:08:59;;;;;;;37.83;33.07;;;14.70;99.90;;;;;;5017105;28;20211;-71
2021/09/17 03:11:24;;;;;;;38.77;34.63;;;14.70;99.90;;;;;;5018021;28;20234;-68
2021/09/17 03:13:50;;;;;;;38.23;33.07;;;14.70;99.90;;;;;;5036778;28;20171;-70
2021/09/17 03:16:16;;;;;;;43.20;33.70;;;14.70;99.90;;;;;;5020788;28;20234;-70
2021/09/17 03:18:41;;;;;;;36.47;31.73;;;14.80;99.90;;;;;;5015714;28;20542;-71
2021/09/17 03:21:07;;;;;;;35.90;32.30;;;14.80;99.90;;;;;;5029918;28;20203;-68
2021/09/17 03:23:33;;;;;;;36.77;31.33;;;14.80;99.90;;;;;;5036213;28;20171;-70
2021/09/17 03:25:58;;;;;;;35.27;31.47;;;14.80;99.90;;;;;;5024468;28;20189;-67
2021/09/17 03:28:24;;;;;;;38.47;30.47;;;14.80;99.90;;;;;;4998879;28;20271;-66
2021/09/17 03:30:50;;;;;;;34.87;29.30;;;14.80;99.90;;;;;;5026309;28;20290;-68
2021/09/17 03:33:16;;;;;;;34.83;29.73;;;14.80;99.90;;;;;;5036061;28;20175;-66
2021/09/17 03:35:43;;;;;;;38.73;29.73;;;14.80;99.90;;;;;;5012292;28;20196;-68
2021/09/17 03:38:09;;;;;;;37.20;29.17;;;14.90;99.90;;;;;;5036012;28;20186;-67
2021/09/17 03:40:37;;;;;;;37.27;29.70;;;14.90;99.90;;;;;;5031995;28;20203;-67
2021/09/17 03:43:04;;;;;;;39.33;27.53;;;15.00;99.90;;;;;;4998485;28;20220;-68
2021/09/17 03:45:32;;;;;;;36.23;27.17;;;15.00;99.90;;;;;;5021618;28;20176;-69
2021/09/17 03:47:58;;;;;;;41.80;27.73;;;15.00;99.90;;;;;;5035571;28;20171;-66
2021/09/17 03:50:24;;;;;;;38.43;28.17;;;15.00;99.90;;;;;;5032731;28;20559;-67
2021/09/17 03:52:49;;;;;;;49.37;29.43;;;15.00;99.90;;;;;;5034897;28;20187;-66
2021/09/17 03:55:15;;;;;;;47.40;28.43;;;15.00;99.90;;;;;;5031485;28;20254;-66
2021/09/17 03:57:41;;;;;;;38.87;26.50;;;15.10;99.90;;;;;;5014820;28;20255;-66
2021/09/17 04:00:07;;;;;;;41.20;27.70;;;15.10;99.90;;;;;;5015402;28;20231;-66
2021/09/17 04:02:32;;;;;;;40.27;26.50;;;15.00;99.90;;;;;;5034491;28;20233;-66
2021/09/17 04:04:58;;;;;;;35.43;26.73;;;14.90;99.90;;;;;;5034661;28;20255;-66
2021/09/17 04:07:24;;;;;;;33.83;26.70;;;14.90;99.90;;;;;;5014730;28;20577;-66
2021/09/17 04:09:49;;;;;;;37.63;26.67;;;14.90;99.90;;;;;;4996875;28;20678;-66
2021/09/17 04:12:15;;;;;;;41.73;27.37;;;14.80;99.90;;;;;;5031894;28;20180;-66
2021/09/17 04:14:40;;;;;;;37.80;27.60;;;14.80;99.90;;;;;;5034189;28;20190;-66
2021/09/17 04:17:06;;;;;;;33.23;27.07;;;14.80;99.90;;;;;;5017222;28;20188;-66
2021/09/17 04:19:32;;;;;;;40.23;28.67;;;14.80;99.90;;;;;;5013381;28;20278;-66
2021/09/17 04:21:57;;;;;;;35.43;27.40;;;14.70;99.90;;;;;;5028310;28;20207;-66
2021/09/17 04:24:23;;;;;;;40.20;28.33;;;14.80;99.90;;;;;;5034241;28;20233;-66
2021/09/17 04:26:48;;;;;;;40.17;28.93;;;14.80;99.90;;;;;;5021712;28;20546;-65
2021/09/17 04:29:14;;;;;;;39.27;29.17;;;14.80;99.90;;;;;;5022117;28;20199;-66
2021/09/17 04:31:40;;;;;;;37.30;29.80;;;14.90;99.90;;;;;;5033855;28;20179;-65
2021/09/17 04:34:05;;;;;;;43.47;30.00;;;14.90;99.90;;;;;;5032393;28;20262;-65
2021/09/17 04:36:31;;;;;;;37.40;27.73;;;14.90;99.90;;;;;;5034237;28;20179;-65
2021/09/17 04:38:56;;;;;;;38.97;29.70;;;14.90;99.90;;;;;;5029060;28;20674;-65
2021/09/17 04:41:22;;;;;;;36.67;31.07;;;15.00;99.90;;;;;;5013490;28;20270;-65
2021/09/17 04:43:48;;;;;;;38.73;29.73;;;15.10;99.90;;;;;;5016794;28;20665;-65
2021/09/17 04:46:13;;;;;;;39.53;31.10;;;15.00;99.90;;;;;;5032963;28;20181;-66
2021/09/17 04:48:39;;;;;;;35.43;30.17;;;15.00;99.90;;;;;;5031941;28;20551;-66
2021/09/17 04:51:05;;;;;;;39.77;33.60;;;15.00;99.90;;;;;;5013447;28;20688;-65
2021/09/17 04:53:30;;;;;;;44.33;34.20;;;14.90;99.90;;;;;;5017663;28;20609;-66
2021/09/17 04:55:56;;;;;;;41.63;33.60;;;15.00;99.90;;;;;;5015332;28;20593;-65
2021/09/17 04:58:21;;;;;;;50.27;35.77;;;15.10;99.90;;;;;;5030817;28;20462;-65
2021/09/17 05:00:47;;;;;;;47.17;35.10;;;15.10;99.90;;;;;;5013453;28;20580;-66
2021/09/17 05:03:13;;;;;;;39.97;33.97;;;15.10;99.90;;;;;;5013957;28;20223;-65
2021/09/17 05:05:39;;;;;;;46.13;35.37;;;15.20;99.90;;;;;;5032835;28;20172;-65
2021/09/17 05:08:04;;;;;;;44.73;33.27;;;15.20;99.90;;;;;;5032961;28;20583;-66
2021/09/17 05:12:58;;;;;;;44.17;34.97;;;15.20;99.90;;;;;;5066365;28;20625;-67
2021/09/17 05:15:24;;;;;;;44.47;34.20;;;15.20;99.90;;;;;;5069320;28;20227;-66
2021/09/17 05:17:50;;;;;;;50.43;36.70;;;15.20;99.90;;;;;;5071201;28;20181;-68
2021/09/17 05:20:17;;;;;;;48.53;34.67;;;15.10;99.90;;;;;;5052453;28;20194;-67
2021/09/17 05:22:42;;;;;;;45.10;32.17;;;15.20;99.90;;;;;;5052771;28;20565;-67
2021/09/17 05:25:09;;;;;;;44.43;31.67;;;15.10;99.90;;;;;;5071447;28;20166;-68
2021/09/17 05:27:34;;;;;;;39.70;30.90;;;15.20;99.90;;;;;;5072283;28;20198;-66
2021/09/17 05:30:00;;;;;;;46.40;31.77;;;15.20;99.90;;;;;;5070736;28;20230;-68
2021/09/17 05:32:26;;;;;;;38.87;29.83;;;15.20;99.90;;;;;;5072447;28;20225;-67
2021/09/17 05:34:52;;;;;;;49.73;29.67;;;15.30;99.90;;;;;;5056807;28;20174;-68
2021/09/17 05:37:17;;;;;;;39.37;29.53;;;15.30;99.90;;;;;;5052608;28;20266;-67
2021/09/17 05:39:43;;;;;;;40.80;28.87;;;15.30;99.90;;;;;;5065744;28;20272;-68
2021/09/17 05:42:09;;;;;;;40.47;30.10;;;15.30;99.90;;;;;;5072326;28;20198;-66
2021/09/17 05:44:34;;;;;;;42.37;30.87;;;15.30;99.90;;;;;;5060249;28;20179;-67
2021/09/17 05:47:00;;;;;;;42.43;30.27;;;15.40;99.90;;;;;;5052592;28;20170;-67
2021/09/17 05:49:26;;;;;;;43.23;29.33;;;15.40;99.90;;;;;;5062202;28;20202;-67
2021/09/17 05:51:51;;;;;;;39.60;29.03;;;15.50;99.90;;;;;;5061530;28;20183;-67
2021/09/17 05:54:17;;;;;;;51.67;32.33;;;15.50;99.90;;;;;;5052350;28;20171;-68
2021/09/17 05:56:43;;;;;;;37.60;28.30;;;15.50;99.90;;;;;;5059456;28;20170;-68
2021/09/17 05:59:08;;;;;;;40.77;29.37;;;15.50;99.90;;;;;;5072181;28;20213;-68
2021/09/17 06:01:34;;;;;;;47.70;29.63;;;15.50;99.90;;;;;;5069096;28;20194;-68
2021/09/17 06:04:00;;;;;;;43.07;28.57;;;15.60;99.90;;;;;;5072154;28;20201;-66
2021/09/17 06:06:26;;;;;;;38.40;27.30;;;15.60;99.90;;;;;;5067378;28;20171;-67
2021/09/17 06:08:51;;;;;;;37.43;28.50;;;15.70;99.90;;;;;;5052122;28;20201;-68
2021/09/17 06:11:17;;;;;;;43.43;26.97;;;15.70;99.90;;;;;;5050319;28;20211;-68
2021/09/17 06:13:43;;;;;;;39.47;28.10;;;15.60;99.90;;;;;;5050355;28;20178;-67
2021/09/17 06:16:09;;;;;;;41.43;27.67;;;15.60;99.90;;;;;;5054508;28;20237;-67
2021/09/17 06:18:34;;;;;;;36.83;26.67;;;15.70;99.90;;;;;;5051733;28;20230;-67
2021/09/17 06:21:00;;;;;;;32.00;26.90;;;15.70;99.90;;;;;;5069914;28;20288;-66
2021/09/17 06:23:27;;;;;;;43.83;27.27;;;15.70;99.90;;;;;;5071381;28;20309;-67
2021/09/17 06:25:53;;;;;;;39.67;26.90;;;15.70;99.90;;;;;;5053806;28;20186;-67
2021/09/17 06:28:19;;;;;;;39.83;26.30;;;15.80;99.90;;;;;;5064701;28;20178;-67
2021/09/17 06:30:44;;;;;;;36.67;26.53;;;15.80;99.90;;;;;;5071268;28;20579;-67
2021/09/17 06:33:10;;;;;;;36.30;24.53;;;15.90;99.90;;;;;;5059299;28;20214;-67
2021/09/17 06:35:36;;;;;;;34.73;25.53;;;15.90;99.90;;;;;;5050199;28;20183;-67
2021/09/17 06:38:02;;;;;;;32.73;24.20;;;16.00;99.90;;;;;;5060788;28;20182;-67
2021/09/17 06:40:28;;;;;;;38.43;24.40;;;16.00;99.90;;;;;;5070804;28;20277;-67
2021/09/17 06:42:55;;;;;;;37.53;25.60;;;15.90;99.90;;;;;;5062993;28;20199;-66
2021/09/17 06:45:20;;;;;;;34.40;25.23;;;15.90;99.90;;;;;;5051443;28;20178;-67
2021/09/17 06:47:49;;;;;;;35.87;24.70;;;16.00;99.90;;;;;;5057803;28;20554;-67
2021/09/17 06:50:17;;;;;;;30.33;26.03;;;16.00;99.90;;;;;;5071097;28;20217;-66
2021/09/17 06:52:47;;;;;;;32.77;26.60;;;16.00;99.90;;;;;;5069930;28;20185;-67
2021/09/17 06:55:17;;;;;;;35.73;26.23;;;16.00;99.90;;;;;;5071336;28;20215;-66
2021/09/17 06:57:45;;;;;;;29.37;24.27;;;16.00;99.90;;;;;;5066242;28;20674;-65
2021/09/17 07:00:12;;;;;;;35.63;27.10;;;16.00;99.90;;;;;;5050935;28;20191;-67
2021/09/17 07:02:37;;;;;;;34.53;27.47;;;16.00;99.90;;;;;;5054529;28;20228;-65
2021/09/17 07:05:03;;;;;;;35.17;28.40;;;16.00;99.90;;;;;;5071424;28;20631;-66
2021/09/17 07:07:29;;;;;;;34.43;26.67;;;16.00;99.90;;;;;;5067035;28;20208;-66
2021/09/17 07:09:55;;;;;;;31.53;26.87;;;16.00;99.90;;;;;;5053070;28;20200;-67
2021/09/17 07:12:20;;;;;;;33.17;27.10;;;16.10;99.90;;;;;;5062721;28;20186;-66
2021/09/17 07:14:46;;;;;;;31.57;27.03;;;16.10;99.90;;;;;;5059733;28;20229;-66
2021/09/17 07:17:11;;;;;;;31.13;26.27;;;16.20;99.90;;;;;;5051001;28;20241;-67
2021/09/17 07:19:37;;;;;;;30.43;25.57;;;16.20;99.90;;;;;;5061699;28;20267;-66
2021/09/17 07:22:05;;;;;;;33.20;25.67;;;16.30;99.90;;;;;;5071219;28;20296;-66
2021/09/17 07:24:31;;;;;;;27.47;24.67;;;16.40;99.90;;;;;;5058012;28;20179;-66
2021/09/17 07:26:57;;;;;;;33.17;25.87;;;16.40;99.90;;;;;;5051295;28;20182;-67
2021/09/17 07:29:22;;;;;;;35.70;26.63;;;16.40;99.90;;;;;;5049147;28;20208;-66
2021/09/17 07:31:48;;;;;;;28.20;24.27;;;16.50;99.90;;;;;;5050991;28;20186;-66
2021/09/17 07:34:14;;;;;;;30.10;24.30;;;16.60;99.90;;;;;;5057636;28;20635;-66
2021/09/17 07:36:39;;;;;;;26.57;23.73;;;16.60;99.90;;;;;;5071258;28;20175;-66
2021/09/17 07:39:05;;;;;;;31.40;22.70;;;16.70;99.90;;;;;;5070326;28;20181;-66
2021/09/17 07:41:30;;;;;;;25.43;21.67;;;16.80;99.90;;;;;;5070410;28;20210;-64
2021/09/17 07:43:56;;;;;;;26.93;23.87;;;16.90;99.90;;;;;;5068478;28;20685;-65
2021/09/17 07:46:22;;;;;;;24.27;21.73;;;16.90;99.90;;;;;;5070944;28;20174;-65
2021/09/17 07:48:47;;;;;;;28.83;22.63;;;17.10;99.90;;;;;;5067627;28;20201;-65
2021/09/17 07:51:13;;;;;;;28.67;22.03;;;17.10;99.90;;;;;;5053248;28;20190;-63
2021/09/17 07:53:38;;;;;;;26.40;23.20;;;17.20;99.90;;;;;;5055589;28;20205;-65
2021/09/17 07:56:04;;;;;;;27.37;23.70;;;17.20;99.90;;;;;;5074542;28;20574;-65
2021/09/17 07:58:30;;;;;;;25.63;21.53;;;17.30;99.90;;;;;;5074544;28;20178;-65
2021/09/17 08:00:55;;;;;;;31.03;22.37;;;17.30;99.90;;;;;;5054634;28;20678;-64
2021/09/17 08:03:23;;;;;;;25.43;22.77;;;17.40;99.90;;;;;;5054330;28;20544;-65
2021/09/17 08:05:49;;;;;;;26.30;23.60;;;17.40;99.90;;;;;;5071849;28;20174;-65
2021/09/17 08:08:15;;;;;;;24.53;21.93;;;17.40;99.90;;;;;;5074432;28;20542;-65
2021/09/17 08:10:40;;;;;;;32.07;22.93;;;17.40;99.90;;;;;;5057815;28;20222;-65
2021/09/17 08:13:06;;;;;;;28.37;23.23;;;17.40;99.90;;;;;;5072611;28;20268;-64
2021/09/17 08:15:32;;;;;;;24.97;22.33;;;17.50;99.90;;;;;;5060375;28;20209;-64
2021/09/17 08:17:57;;;;;;;27.13;24.20;;;17.70;99.90;;;;;;5053715;28;20232;-62
2021/09/17 08:20:23;;;;;;;27.43;24.50;;;17.80;99.90;;;;;;5053851;28;20310;-63
2021/09/17 08:22:48;;;;;;;26.57;23.77;;;17.80;99.90;;;;;;5066152;28;20201;-63
2021/09/17 08:25:14;;;;;;;29.40;22.67;;;17.80;99.90;;;;;;5063664;28;20186;-65
2021/09/17 08:27:40;;;;;;;24.37;21.87;;;17.80;99.90;;;;;;5053846;28;20224;-63
2021/09/17 08:30:07;;;;;;;26.30;22.20;;;17.80;99.90;;;;;;5061630;28;20275;-64
2021/09/17 08:32:33;;;;;;;26.87;22.70;;;17.80;99.90;;;;;;5073708;28;20178;-63
2021/09/17 08:34:58;;;;;;;28.80;21.97;;;17.90;99.90;;;;;;5066555;28;20587;-65
2021/09/17 08:37:24;;;;;;;23.53;21.03;;;18.00;99.90;;;;;;5053672;28;20183;-64
2021/09/17 08:39:50;;;;;;;25.80;22.77;;;18.00;99.90;;;;;;5052372;28;20213;-64
2021/09/17 08:42:16;;;;;;;32.50;22.83;;;18.00;99.90;;;;;;5053437;28;20203;-63
2021/09/17 08:44:41;;;;;;;26.17;23.47;;;18.10;99.90;;;;;;5056305;28;20182;-64
2021/09/17 08:47:07;;;;;;;27.97;24.03;;;18.00;99.90;;;;;;5073505;28;20174;-64
2021/09/17 08:49:38;;;;;;;27.97;24.03;;;17.90;99.90;;;;;;5071884;28;20618;-63
2021/09/17 08:52:04;;;;;;;28.63;24.67;;;17.80;99.90;;;;;;5053544;28;20186;-65
2021/09/17 08:54:30;;;;;;;28.77;24.37;;;17.80;99.90;;;;;;5053461;28;20263;-63
2021/09/17 08:56:56;;;;;;;31.43;23.53;;;17.90;99.90;;;;;;5073191;28;20178;-64
2021/09/17 08:59:21;;;;;;;29.23;24.47;;;18.00;99.90;;;;;;5073027;28;20171;-64
2021/09/17 09:01:47;;;;;;;28.07;24.60;;;18.00;99.90;;;;;;5053971;28;20217;-64
2021/09/17 09:04:14;;;;;;;27.67;23.63;;;18.00;99.90;;;;;;5053370;28;20214;-64
2021/09/17 09:06:47;;;;;;;28.67;24.43;;;18.00;99.90;;;;;;5069663;28;20181;-64
2021/09/17 09:09:20;;;;;;;28.33;25.33;;;18.00;99.90;;;;;;5073121;28;20173;-64
2021/09/17 09:11:53;;;;;;;28.33;23.47;;;17.90;99.90;;;;;;5056039;28;20190;-64
2021/09/17 09:14:19;;;;;;;25.40;22.77;;;18.00;99.90;;;;;;5059193;28;20204;-64
2021/09/17 09:16:52;;;;;;;26.07;23.33;;;18.00;99.90;;;;;;5073129;28;20658;-64
2021/09/17 09:19:34;;;;;;;28.90;24.23;;;18.00;99.90;;;;;;5066828;28;20270;-64
2021/09/17 09:22:02;;;;;;;27.10;23.10;;;18.20;99.90;;;;;;5052791;28;20203;-64
2021/09/17 09:24:28;;;;;;;24.20;21.67;;;18.40;99.90;;;;;;5053247;28;20259;-64
2021/09/17 09:27:16;;;;;;;24.60;22.00;;;18.60;99.90;;;;;;5051728;28;20179;-64
2021/09/17 09:29:52;;;;;;;23.00;20.63;;;18.90;99.90;;;;;;5057467;28;20573;-64
2021/09/17 09:32:30;;;;;;;25.50;21.60;;;19.10;99.90;;;;;;5052787;28;20612;-65
2021/09/17 09:34:58;;;;;;;25.17;22.67;;;19.40;99.90;;;;;;5060136;28;20193;-65
2021/09/17 09:37:30;;;;;;;23.87;21.33;;;19.50;99.90;;;;;;5072844;28;20257;-63
2021/09/17 09:40:05;;;;;;;25.80;21.03;;;19.70;99.90;;;;;;5063971;28;20257;-64
2021/09/17 09:42:32;;;;;;;22.93;20.63;;;20.00;99.90;;;;;;5052542;28;20233;-64
2021/09/17 09:45:17;;;;;;;22.03;19.43;;;20.30;99.90;;;;;;5059092;28;20225;-65
2021/09/17 09:47:45;;;;;;;20.50;18.43;;;20.60;99.90;;;;;;5072415;28;20647;-66
2021/09/17 09:50:15;;;;;;;19.70;17.77;;;21.00;99.90;;;;;;5063014;28;20199;-65
2021/09/17 09:52:41;;;;;;;19.10;17.00;;;21.40;99.90;;;;;;5052563;28;20194;-65
2021/09/17 09:55:08;;;;;;;19.40;16.38;;;21.90;99.90;;;;;;5059716;28;20221;-66
2021/09/17 09:57:34;;;;;;;21.83;18.95;;;22.40;99.90;;;;;;5072180;28;20174;-65
2021/09/17 10:00:06;;;;;;;19.58;17.58;;;22.30;99.90;;;;;;5065735;28;20717;-65
2021/09/17 10:02:33;;;;;;;19.35;17.27;;;22.30;99.90;;;;;;5052298;28;20306;-65
2021/09/17 10:04:59;;;;;;;19.70;17.90;;;22.40;99.90;;;;;;5057127;28;20182;-64
2021/09/17 10:07:27;;;;;;;26.70;19.05;;;22.30;99.90;;;;;;5071905;28;20207;-64
2021/09/17 10:09:53;;;;;;;19.15;17.13;;;22.30;99.90;;;;;;5067811;28;20256;-66
2021/09/17 10:12:19;;;;;;;19.23;17.25;;;22.60;99.90;;;;;;5051800;28;20202;-64
2021/09/17 10:14:47;;;;;;;20.13;18.02;;;23.10;99.90;;;;;;5053493;28;20174;-64
2021/09/17 10:17:20;;;;;;;20.80;18.73;;;23.60;99.90;;;;;;5072183;28;20560;-64
2021/09/17 10:19:47;;;;;;;20.05;18.08;;;23.80;99.90;;;;;;5070620;28;20551;-65
2021/09/17 10:22:43;;;;;;;20.50;17.90;;;24.40;99.90;;;;;;5051723;28;20587;-64
2021/09/17 10:25:24;;;;;;;22.13;19.65;;;25.30;99.90;;;;;;5055498;28;20511;-64
2021/09/17 10:28:06;;;;;;;21.30;18.88;;;25.60;99.90;;;;;;5071808;28;20162;-66
2021/09/17 10:30:34;;;;;;;22.13;19.42;;;25.70;99.90;;;;;;5065000;28;20248;-65
2021/09/17 10:33:01;;;;;;;26.40;20.02;;;25.90;99.90;;;;;;5051743;28;20193;-64
2021/09/17 10:35:31;;;;;;;22.15;18.85;;;25.90;99.90;;;;;;5052683;28;20257;-64
2021/09/17 10:38:06;;;;;;;24.67;20.25;;;26.30;99.90;;;;;;5051565;28;20636;-65
2021/09/17 10:40:39;;;;;;;20.05;17.77;;;26.10;99.90;;;;;;5055792;28;20998;-64
2021/09/17 10:43:11;;;;;;;20.38;18.27;;;26.50;99.90;;;;;;5071009;28;20237;-65
2021/09/17 10:45:40;;;;;;;18.80;17.00;;;26.90;99.90;;;;;;5065033;28;20167;-65
2021/09/17 10:48:07;;;;;;;20.33;18.20;;;27.10;99.90;;;;;;5051476;28;20167;-64
2021/09/17 10:50:57;;;;;;;21.60;17.88;;;27.20;99.90;;;;;;5054467;28;20190;-66
2021/09/17 10:53:44;;;;;;;19.65;17.75;;;27.20;99.90;;;;;;5071631;28;20189;-65
2021/09/17 10:56:15;;;;;;;19.63;17.52;;;27.90;99.90;;;;;;5062971;28;20183;-65
2021/09/17 10:58:43;;;;;;;19.52;17.60;;;28.60;99.90;;;;;;5051716;28;20741;-65
2021/09/17 11:01:10;;;;;;;21.52;19.33;;;28.90;99.90;;;;;;5057814;28;20205;-66
2021/09/17 11:03:36;;;;;;;19.10;17.20;;;29.60;99.90;;;;;;5071386;28;20288;-65
2021/09/17 11:06:26;;;;;;;18.55;16.55;;;29.90;99.90;;;;;;5065795;28;20257;-65
2021/09/17 11:09:06;;;;;;;20.40;18.30;;;30.00;99.90;;;;;;5051322;28;20190;-64
2021/09/17 11:11:43;;;;;;;21.17;18.52;;;29.50;99.90;;;;;;5263982;22;20415;-64
2021/09/17 11:14:17;;;;;;;26.77;20.02;;;29.00;99.90;;;;;;5016810;28;20190;-64
2021/09/17 11:16:46;;;;;;;22.20;19.98;;;28.30;99.90;;;;;;5030735;28;20175;-64
2021/09/17 11:19:15;;;;;;;22.77;20.38;;;27.30;99.90;;;;;;5025391;28;20180;-64
2021/09/17 11:21:44;;;;;;;21.63;19.35;;;26.70;99.90;;;;;;5011070;28;20771;-64
2021/09/17 11:24:28;;;;;;;22.10;18.83;;;27.10;99.90;;;;;;5015515;28;20767;-64
2021/09/17 11:26:55;;;;;;;22.52;19.92;;;27.70;99.90;;;;;;5035213;28;20176;-64
2021/09/17 11:29:25;;;;;;;25.63;21.42;;;28.30;99.90;;;;;;5018758;28;20184;-64
2021/09/17 11:31:57;;;;;;;21.35;19.20;;;28.50;99.90;;;;;;5022469;28;20207;-64
2021/09/17 11:34:25;;;;;;;22.88;20.58;;;28.40;99.90;;;;;;5034937;28;20187;-64
2021/09/17 11:37:01;;;;;;;25.23;22.67;;;28.40;99.90;;;;;;5027931;28;20549;-64
2021/09/17 11:39:38;;;;;;;23.33;21.00;;;28.40;99.90;;;;;;5014826;28;20172;-64
2021/09/17 11:42:14;;;;;;;24.77;22.20;;;28.40;99.90;;;;;;5022746;28;20260;-64
2021/09/17 11:44:40;;;;;;;25.00;21.73;;;28.30;99.90;;;;;;5034145;28;20209;-64
2021/09/17 11:47:08;;;;;;;22.20;19.55;;;28.40;99.90;;;;;;5031538;28;20265;-64
2021/09/17 11:49:37;;;;;;;24.48;22.00;;;28.30;99.90;;;;;;5034468;28;20188;-63
2021/09/17 11:52:17;;;;;;;24.65;20.33;;;27.90;99.90;;;;;;5027823;28;20580;-64
2021/09/17 11:54:58;;;;;;;24.38;21.15;;;28.40;99.90;;;;;;5015120;28;20566;-64
2021/09/17 11:57:29;;;;;;;22.67;20.23;;;29.00;99.90;;;;;;5022744;28;20236;-64
2021/09/17 11:59:55;;;;;;;24.48;21.05;;;29.00;99.90;;;;;;5026421;28;20176;-64
2021/09/17 12:02:22;;;;;;;24.38;21.67;;;28.30;99.90;;;;;;5014489;28;20196;-64
2021/09/17 12:05:01;;;;;;;24.40;21.83;;;27.30;99.90;;;;;;5020329;28;20187;-64
2021/09/17 12:07:29;;;;;;;22.05;19.95;;;26.60;99.90;;;;;;5034285;28;20172;-64
2021/09/17 12:09:56;;;;;;;22.13;19.85;;;26.40;99.90;;;;;;5027472;28;20171;-64
2021/09/17 12:12:39;;;;;;;24.33;21.27;;;26.10;99.90;;;;;;5014152;28;20235;-64
2021/09/17 12:15:06;;;;;;;24.90;20.60;;;25.80;99.90;;;;;;5021490;28;20266;-64
2021/09/17 12:17:32;;;;;;;23.85;21.48;;;25.70;99.90;;;;;;5034141;28;20643;-63
2021/09/17 12:20:04;;;;;;;25.52;22.85;;;25.30;99.90;;;;;;5027939;28;20281;-63
2021/09/17 12:22:34;;;;;;;24.02;21.77;;;24.90;99.90;;;;;;5014176;28;20215;-63
2021/09/17 12:25:25;;;;;;;24.40;21.42;;;24.90;99.90;;;;;;5019698;28;20581;-63
2021/09/17 12:28:13;;;;;;;25.63;23.02;;;24.80;99.90;;;;;;5033863;28;20195;-64
2021/09/17 12:30:39;;;;;;;28.13;21.52;;;24.60;99.90;;;;;;5023543;28;20226;-63
2021/09/17 12:33:04;;;;;;;24.48;21.98;;;24.40;99.90;;;;;;5020316;28;20207;-63